Edmond, Oklahoma
Current Conditions -  °F | °C
As of 2:53 AM on Wednesday 28 Jan 2015 (Local Time) from KPWA Reporting Station
Clear Clear  
Wind Chill: 54°   Ceiling: Unl
Heat Index: 54°   Visibility: 10mi
Dew Point: 38°   Wind: 13mph
Humidity: 55%   Direction: 190°S
Pressure: 30.03"   Gusts: NA
Location:  35.65°N, 97.48°W
Report Text: KPWA 280853Z AUTO 19011KT 10SM CLR 12/03 A3003 RMK AO2 SLP159 T01220033 56005
Loading
Personal Weather Stations






























Interactive Weather Map New forecast layout! Learn more

10-Day Weather Forecast

Advertisements
Track Severe Weather on mobile